createdAt,value
2023-03-05T00:02:07.116Z,72.75
2023-03-05T00:04:39.467Z,72.65
2023-03-05T00:07:09.174Z,72.09
2023-03-05T00:09:36.070Z,71.80
2023-03-05T00:12:03.877Z,71.51
2023-03-05T00:14:30.469Z,71.14
2023-03-05T00:16:57.130Z,70.63
2023-03-05T00:19:24.730Z,70.43
2023-03-05T00:21:51.416Z,70.21
2023-03-05T00:24:19.044Z,69.92
2023-03-05T00:26:46.861Z,69.99
2023-03-05T00:29:18.588Z,69.84
2023-03-05T00:31:45.439Z,70.09
2023-03-05T00:34:16.979Z,70.36
2023-03-05T00:36:46.812Z,69.50
2023-03-05T00:39:13.999Z,69.13
2023-03-05T00:41:40.852Z,68.46
2023-03-05T00:44:08.054Z,68.20
2023-03-05T00:46:34.781Z,68.42
2023-03-05T00:49:01.420Z,68.08
2023-03-05T00:51:28.247Z,67.65
2023-03-05T00:53:54.931Z,67.63
2023-03-05T00:56:22.531Z,67.65
2023-03-05T00:58:49.347Z,67.54
2023-03-05T01:01:16.363Z,67.43
2023-03-05T01:03:43.203Z,67.45
2023-03-05T01:06:13.173Z,67.42
2023-03-05T01:08:40.257Z,67.21
2023-03-05T01:11:09.256Z,66.79
2023-03-05T01:13:36.753Z,66.31
2023-03-05T01:16:03.858Z,66.31
2023-03-05T01:18:30.531Z,66.13
2023-03-05T01:20:57.260Z,65.95
2023-03-05T01:23:23.995Z,66.06
2023-03-05T01:25:58.358Z,66.15
2023-03-05T01:28:26.475Z,65.53
2023-03-05T01:30:53.126Z,65.47
2023-03-05T01:33:19.957Z,65.28
2023-03-05T01:35:47.848Z,65.35
2023-03-05T01:38:15.468Z,65.44
2023-03-05T01:40:43.694Z,65.09
2023-03-05T01:43:13.054Z,65.01
2023-03-05T01:46:11.825Z,65.38
2023-03-05T01:48:40.585Z,65.48
2023-03-05T01:51:07.586Z,65.41
2023-03-05T01:53:34.460Z,65.51
2023-03-05T01:56:01.649Z,65.77
2023-03-05T01:58:28.623Z,65.97
2023-03-05T02:00:55.715Z,65.96
2023-03-05T02:03:23.909Z,66.08
2023-03-05T02:05:50.495Z,66.15
2023-03-05T02:08:20.588Z,66.27
2023-03-05T02:10:50.820Z,66.11
2023-03-05T02:13:25.778Z,65.71
2023-03-05T02:15:54.163Z,65.28
2023-03-05T02:18:22.826Z,64.95
2023-03-05T02:20:56.760Z,64.73
2023-03-05T02:23:26.843Z,64.72
2023-03-05T02:25:54.254Z,64.46
2023-03-05T02:28:49.616Z,64.73
2023-03-05T02:31:20.129Z,64.91
2023-03-05T02:33:49.881Z,64.80
2023-03-05T02:36:18.019Z,65.10
2023-03-05T02:38:45.660Z,64.96
2023-03-05T02:41:12.825Z,65.23
2023-03-05T02:43:39.535Z,64.74
2023-03-05T02:46:06.706Z,64.68
2023-03-05T02:48:33.848Z,64.73
2023-03-05T02:51:02.335Z,65.04
2023-03-05T02:53:28.969Z,65.25
2023-03-05T02:55:55.560Z,65.58
2023-03-05T02:58:22.174Z,65.80
2023-03-05T03:00:48.853Z,65.78
2023-03-05T03:03:16.526Z,66.27
2023-03-05T03:05:43.242Z,66.61
2023-03-05T03:08:10.512Z,66.90
2023-03-05T03:10:37.714Z,67.01
2023-03-05T03:13:04.431Z,67.15
2023-03-05T03:15:31.117Z,67.34
2023-03-05T03:17:57.696Z,67.69
2023-03-05T03:20:25.009Z,68.00
2023-03-05T03:22:51.631Z,68.11
2023-03-05T03:25:21.607Z,68.21
2023-03-05T03:27:48.700Z,68.52
2023-03-05T03:30:15.983Z,68.84
2023-03-05T03:32:42.992Z,68.95
2023-03-05T03:35:11.430Z,68.79
2023-03-05T03:37:38.134Z,68.93
2023-03-05T03:40:06.448Z,68.60
2023-03-05T03:42:33.414Z,68.98
2023-03-05T03:45:00.635Z,68.92
2023-03-05T03:47:29.848Z,69.28
2023-03-05T03:49:57.075Z,69.18
2023-03-05T03:52:23.697Z,69.30
2023-03-05T03:54:52.438Z,68.95
2023-03-05T03:57:19.313Z,68.68
2023-03-05T03:59:46.948Z,68.61
2023-03-05T04:02:14.005Z,68.38
2023-03-05T04:04:40.722Z,68.29
2023-03-05T04:07:07.421Z,68.43
2023-03-05T04:09:34.064Z,68.33
2023-03-05T04:12:00.929Z,68.39
2023-03-05T04:14:27.518Z,68.58
2023-03-05T04:16:54.320Z,68.46
2023-03-05T04:19:21.365Z,68.29
2023-03-05T04:21:47.959Z,68.56
2023-03-05T04:24:15.296Z,68.83
2023-03-05T04:26:41.982Z,69.19
2023-03-05T04:29:08.597Z,69.13
2023-03-05T04:31:37.229Z,68.83
2023-03-05T04:34:04.760Z,68.46
2023-03-05T04:36:31.439Z,68.13
2023-03-05T04:38:57.980Z,67.92
2023-03-05T04:41:24.740Z,67.62
2023-03-05T04:43:52.268Z,67.75
2023-03-05T04:46:18.941Z,67.75
2023-03-05T04:48:45.642Z,67.35
2023-03-05T04:51:12.341Z,67.14
2023-03-05T04:53:39.024Z,67.16
2023-03-05T04:56:06.060Z,67.24
2023-03-05T04:58:32.851Z,67.46
2023-03-05T05:01:04.025Z,67.64
2023-03-05T05:03:30.961Z,67.66
2023-03-05T05:05:59.226Z,67.65
2023-03-05T05:08:26.792Z,67.86
2023-03-05T05:11:02.297Z,68.18
2023-03-05T05:13:29.651Z,68.11
2023-03-05T05:15:56.919Z,68.14
2023-03-05T05:18:24.759Z,68.41
2023-03-05T05:20:51.885Z,68.57
2023-03-05T05:23:18.775Z,68.70
2023-03-05T05:25:45.717Z,68.94
2023-03-05T05:28:13.086Z,68.88
2023-03-05T05:30:39.656Z,69.06
2023-03-05T05:33:06.271Z,69.49
2023-03-05T05:35:33.188Z,69.41
2023-03-05T05:37:59.719Z,69.75
2023-03-05T05:40:26.309Z,69.80
2023-03-05T05:42:53.029Z,69.94
2023-03-05T05:45:20.035Z,70.08
2023-03-05T05:47:46.721Z,70.25
2023-03-05T05:50:13.832Z,70.55
2023-03-05T05:52:40.691Z,70.89
2023-03-05T05:55:07.684Z,71.04
2023-03-05T05:57:35.623Z,70.92
2023-03-05T06:00:02.566Z,70.79
2023-03-05T06:02:29.203Z,70.47
2023-03-05T06:04:58.253Z,70.40
2023-03-05T06:07:25.026Z,70.25
2023-03-05T06:09:51.684Z,70.34
2023-03-05T06:12:18.395Z,70.66
2023-03-05T06:14:45.009Z,70.65
2023-03-05T06:17:14.815Z,70.59
2023-03-05T06:19:44.643Z,70.84
2023-03-05T06:22:11.759Z,70.99
2023-03-05T06:24:38.886Z,71.08
2023-03-05T06:27:06.201Z,71.11
2023-03-05T06:29:32.941Z,71.10
2023-03-05T06:32:00.910Z,71.13
2023-03-05T06:34:27.610Z,71.47
2023-03-05T06:36:54.217Z,71.29
2023-03-05T06:39:21.832Z,71.48
2023-03-05T06:41:51.996Z,71.69
2023-03-05T06:44:31.892Z,71.66
2023-03-05T06:46:58.712Z,71.82
2023-03-05T06:49:25.557Z,71.87
2023-03-05T06:51:52.073Z,72.17
2023-03-05T06:54:19.782Z,72.26
2023-03-05T06:56:47.306Z,72.35
2023-03-05T06:59:21.761Z,72.29
2023-03-05T07:01:48.604Z,72.39
2023-03-05T07:04:15.959Z,72.48
2023-03-05T07:06:42.874Z,72.48
2023-03-05T07:09:14.462Z,72.54
2023-03-05T07:11:41.635Z,72.73
2023-03-05T07:14:08.668Z,72.80
2023-03-05T07:16:35.596Z,72.69
2023-03-05T07:19:05.101Z,72.86
2023-03-05T07:21:33.902Z,73.15
2023-03-05T07:24:02.062Z,73.48
2023-03-05T07:26:28.991Z,73.59
2023-03-05T07:28:56.007Z,73.40
2023-03-05T07:31:27.569Z,73.54
2023-03-05T07:33:55.459Z,73.75
2023-03-05T07:36:22.068Z,73.53
2023-03-05T07:38:48.696Z,73.40
2023-03-05T07:41:21.235Z,73.42
2023-03-05T07:43:53.368Z,73.66
2023-03-05T07:46:23.194Z,73.69
2023-03-05T07:48:50.227Z,73.59
2023-03-05T07:51:20.216Z,73.58
2023-03-05T07:53:49.043Z,73.67
2023-03-05T07:56:23.590Z,73.54
2023-03-05T07:58:50.528Z,73.54
2023-03-05T08:01:17.410Z,73.28
2023-03-05T08:03:44.711Z,73.27
2023-03-05T08:06:12.766Z,73.33
2023-03-05T08:08:39.737Z,73.22
2023-03-05T08:11:08.816Z,73.08
2023-03-05T08:13:35.674Z,73.10
2023-03-05T08:16:07.651Z,73.21
2023-03-05T08:18:34.394Z,73.31
2023-03-05T08:21:01.442Z,73.12
2023-03-05T08:23:28.608Z,72.98
2023-03-05T08:25:55.901Z,72.90
2023-03-05T08:28:25.652Z,72.75
2023-03-05T08:30:52.449Z,72.31
2023-03-05T08:33:19.250Z,72.49
2023-03-05T08:35:45.951Z,72.27
2023-03-05T08:38:12.678Z,72.10
2023-03-05T08:40:39.252Z,71.95
2023-03-05T08:43:07.391Z,72.14
2023-03-05T08:45:37.074Z,71.87
2023-03-05T08:48:05.850Z,71.27
2023-03-05T08:50:32.413Z,71.57
2023-03-05T08:53:00.244Z,71.53
2023-03-05T08:55:26.831Z,71.71
2023-03-05T08:57:53.515Z,71.97
2023-03-05T09:00:20.505Z,72.04
2023-03-05T09:02:47.257Z,72.10
2023-03-05T09:05:14.990Z,72.28
2023-03-05T09:07:41.711Z,72.42
2023-03-05T09:10:11.754Z,72.79
2023-03-05T09:12:38.472Z,72.69
2023-03-05T09:15:09.916Z,72.53
2023-03-05T09:17:38.157Z,72.63
2023-03-05T09:20:06.555Z,72.57
2023-03-05T09:22:33.159Z,72.64
2023-03-05T09:24:59.798Z,72.75
2023-03-05T09:27:26.479Z,72.93
2023-03-05T09:29:53.349Z,73.10
2023-03-05T09:32:20.222Z,73.36
2023-03-05T09:34:46.869Z,73.66
2023-03-05T09:37:13.538Z,73.76
2023-03-05T09:39:44.234Z,73.89
2023-03-05T09:42:31.648Z,74.10
2023-03-05T09:44:58.235Z,74.61
2023-03-05T09:47:43.196Z,74.72
2023-03-05T09:50:32.607Z,75.13
2023-03-05T09:53:17.933Z,75.01
2023-03-05T09:55:47.517Z,74.83
2023-03-05T09:58:23.075Z,74.74
2023-03-05T10:00:54.648Z,74.65
2023-03-05T10:03:32.240Z,74.21
2023-03-05T10:06:05.863Z,74.14
2023-03-05T10:08:49.146Z,74.25
2023-03-05T10:11:24.744Z,74.52
2023-03-05T10:13:52.345Z,74.68
2023-03-05T10:16:30.903Z,75.15
2023-03-05T10:19:13.871Z,75.50
2023-03-05T10:21:46.048Z,75.74
2023-03-05T10:24:40.890Z,76.12
2023-03-05T10:27:39.320Z,76.65
2023-03-05T10:30:24.889Z,77.15
2023-03-05T10:33:15.303Z,77.34
2023-03-05T10:35:44.703Z,77.88
2023-03-05T10:38:24.647Z,78.12
2023-03-05T10:41:04.481Z,78.71
2023-03-05T10:43:54.529Z,79.05
2023-03-05T10:46:25.332Z,79.72
2023-03-05T10:49:05.430Z,80.08
2023-03-05T10:51:32.060Z,80.32
2023-03-05T10:54:04.854Z,80.76
2023-03-05T10:56:32.057Z,81.00
2023-03-05T10:58:58.652Z,81.49
2023-03-05T11:01:28.178Z,81.08
2023-03-05T11:04:01.483Z,81.25
2023-03-05T11:06:31.434Z,80.79
2023-03-05T11:09:21.531Z,80.53
2023-03-05T11:12:00.331Z,80.09
2023-03-05T11:14:33.240Z,79.61
2023-03-05T11:17:03.011Z,79.16
2023-03-05T11:19:35.664Z,78.89
2023-03-05T11:22:08.589Z,78.63
2023-03-05T11:24:35.176Z,78.58
2023-03-05T11:27:01.900Z,78.68
2023-03-05T11:29:33.791Z,78.61
2023-03-05T11:32:25.987Z,78.54
2023-03-05T11:34:54.420Z,78.56
2023-03-05T11:37:29.623Z,78.51
2023-03-05T11:40:19.147Z,78.76
2023-03-05T11:42:53.119Z,78.72
2023-03-05T11:45:20.038Z,78.86
2023-03-05T11:47:53.043Z,78.70
2023-03-05T11:50:29.482Z,78.90
2023-03-05T11:53:12.023Z,79.22
2023-03-05T11:55:51.944Z,79.08
2023-03-05T11:58:46.472Z,79.20
2023-03-05T12:01:19.162Z,79.10
2023-03-05T12:03:46.666Z,78.63
2023-03-05T12:06:13.255Z,78.41
2023-03-05T12:08:45.181Z,77.67
2023-03-05T12:11:20.009Z,77.15
2023-03-05T12:13:52.441Z,76.86
2023-03-05T12:16:35.145Z,76.05
2023-03-05T12:19:28.477Z,75.44
2023-03-05T12:21:55.641Z,75.14
2023-03-05T12:24:27.982Z,74.42
2023-03-05T12:26:59.507Z,74.05
2023-03-05T12:30:05.267Z,72.97
2023-03-05T12:32:32.078Z,72.26
2023-03-05T12:35:05.436Z,71.33
2023-03-05T12:37:32.027Z,71.15
2023-03-05T12:40:20.372Z,71.18
2023-03-05T12:43:02.234Z,70.47
2023-03-05T12:45:32.526Z,70.16
2023-03-05T12:47:59.307Z,69.84
2023-03-05T12:50:29.048Z,69.50
2023-03-05T12:53:11.036Z,69.35
2023-03-05T12:55:56.005Z,69.03
2023-03-05T12:58:39.648Z,68.79
2023-03-05T13:01:33.217Z,68.24
2023-03-05T13:04:17.389Z,68.35
2023-03-05T13:06:44.100Z,68.38
2023-03-05T13:09:28.872Z,68.21
2023-03-05T13:11:56.504Z,68.20
2023-03-05T13:14:42.401Z,67.96
2023-03-05T13:17:29.357Z,67.65
2023-03-05T13:20:07.125Z,67.60
2023-03-05T13:22:33.911Z,67.32
2023-03-05T13:25:10.764Z,66.70
2023-03-05T13:27:39.347Z,66.12
2023-03-05T13:30:17.406Z,65.72
2023-03-05T13:32:44.152Z,65.36
2023-03-05T13:35:15.479Z,65.56
2023-03-05T13:37:44.840Z,65.01
2023-03-05T13:40:32.329Z,64.85
2023-03-05T13:43:18.334Z,64.48
2023-03-05T13:45:53.921Z,64.14
2023-03-05T13:48:20.739Z,64.53
2023-03-05T13:50:55.877Z,64.77
2023-03-05T13:53:28.472Z,65.19
2023-03-05T13:56:01.592Z,65.41
2023-03-05T13:58:41.888Z,65.48
2023-03-05T14:01:36.829Z,65.83
2023-03-05T14:04:12.374Z,66.20
2023-03-05T14:07:08.065Z,66.08
2023-03-05T14:09:37.461Z,66.51
2023-03-05T14:12:27.303Z,66.57
2023-03-05T14:14:54.207Z,67.11
2023-03-05T14:17:23.799Z,67.33
2023-03-05T14:19:52.276Z,67.94
2023-03-05T14:22:36.914Z,67.97
2023-03-05T14:25:05.912Z,67.95
2023-03-05T14:27:36.716Z,68.21
2023-03-05T14:30:05.330Z,68.59
2023-03-05T14:32:35.157Z,68.98
2023-03-05T14:35:05.228Z,69.18
2023-03-05T14:37:42.228Z,69.29
2023-03-05T14:40:12.337Z,69.40
2023-03-05T14:42:41.569Z,69.84
2023-03-05T14:45:16.322Z,70.54
2023-03-05T14:47:43.044Z,71.33
2023-03-05T14:50:19.535Z,72.07
2023-03-05T14:52:48.669Z,72.96
2023-03-05T14:55:21.588Z,73.82
2023-03-05T14:57:51.684Z,74.47
2023-03-05T15:00:28.248Z,75.24
2023-03-05T15:02:55.306Z,75.89
2023-03-05T15:05:22.091Z,76.82
2023-03-05T15:07:51.564Z,77.50
2023-03-05T15:10:22.140Z,78.21
2023-03-05T15:12:50.489Z,78.33
2023-03-05T15:15:18.462Z,78.79
2023-03-05T15:17:51.763Z,79.05
2023-03-05T15:20:21.625Z,79.45
2023-03-05T15:22:48.557Z,79.75
2023-03-05T15:25:16.099Z,80.23
2023-03-05T15:27:42.921Z,80.49
2023-03-05T15:30:22.421Z,80.66
2023-03-05T15:32:50.898Z,80.68
2023-03-05T15:35:19.734Z,81.08
2023-03-05T15:37:47.348Z,81.31
2023-03-05T15:40:14.624Z,81.09
2023-03-05T15:42:41.850Z,81.23
2023-03-05T15:45:09.140Z,81.40
2023-03-05T15:47:35.826Z,81.36
2023-03-05T15:50:02.564Z,81.50
2023-03-05T15:52:29.199Z,81.81
2023-03-05T15:54:56.066Z,81.91
2023-03-05T15:57:22.799Z,81.88
2023-03-05T15:59:51.162Z,82.00
2023-03-05T16:02:19.223Z,82.16
2023-03-05T16:04:46.214Z,82.52
2023-03-05T16:07:14.981Z,82.50
2023-03-05T16:09:48.235Z,82.29
2023-03-05T16:12:21.836Z,82.57
2023-03-05T16:14:51.002Z,82.54
2023-03-05T16:17:20.963Z,82.48
2023-03-05T16:19:52.511Z,82.42
2023-03-05T16:22:19.303Z,82.65
2023-03-05T16:24:45.897Z,82.71
2023-03-05T16:27:12.599Z,82.40
2023-03-05T16:29:39.360Z,82.34
2023-03-05T16:32:07.374Z,82.38
2023-03-05T16:34:34.685Z,82.31
2023-03-05T16:37:06.881Z,81.96
2023-03-05T16:39:33.713Z,82.15
2023-03-05T16:42:00.368Z,82.30
2023-03-05T16:44:27.125Z,82.16
2023-03-05T16:46:54.150Z,81.88
2023-03-05T16:49:21.590Z,81.78
2023-03-05T16:51:48.546Z,81.56
2023-03-05T16:54:15.239Z,81.36
2023-03-05T16:56:41.978Z,81.03
2023-03-05T16:59:08.630Z,81.04
2023-03-05T17:01:35.340Z,80.90
2023-03-05T17:04:02.327Z,80.72
2023-03-05T17:06:31.104Z,80.71
2023-03-05T17:08:58.369Z,80.81
2023-03-05T17:11:25.983Z,81.08
2023-03-05T17:13:52.666Z,80.91
2023-03-05T17:16:21.242Z,80.89
2023-03-05T17:18:48.874Z,81.10
2023-03-05T17:21:15.854Z,81.34
2023-03-05T17:23:44.123Z,81.32
2023-03-05T17:26:14.660Z,81.39
2023-03-05T17:28:42.052Z,81.87
2023-03-05T17:31:08.822Z,82.12
2023-03-05T17:33:36.841Z,82.35
2023-03-05T17:36:04.598Z,82.47
2023-03-05T17:38:31.667Z,83.06
2023-03-05T17:40:58.340Z,83.25
2023-03-05T17:43:24.889Z,83.52
2023-03-05T17:45:51.576Z,83.59
2023-03-05T17:48:18.142Z,83.66
2023-03-05T17:50:45.238Z,83.74
2023-03-05T17:53:12.653Z,83.84
2023-03-05T17:55:40.208Z,84.06
2023-03-05T17:58:07.008Z,84.04
2023-03-05T18:00:34.592Z,84.00
2023-03-05T18:03:02.191Z,84.17
2023-03-05T18:05:29.551Z,84.12
2023-03-05T18:07:56.576Z,84.31
2023-03-05T18:10:25.999Z,84.55
2023-03-05T18:12:53.984Z,84.50
2023-03-05T18:15:23.287Z,84.58
2023-03-05T18:17:50.973Z,84.30
2023-03-05T18:20:36.086Z,84.40
2023-03-05T18:23:04.259Z,84.41
2023-03-05T18:25:31.713Z,84.61
2023-03-05T18:28:03.044Z,84.73
2023-03-05T18:30:30.640Z,84.74
2023-03-05T18:32:57.828Z,84.79
2023-03-05T18:35:24.811Z,84.72
2023-03-05T18:37:52.040Z,84.54
2023-03-05T18:40:22.149Z,84.61
2023-03-05T18:42:50.119Z,84.75
2023-03-05T18:45:18.658Z,84.72
2023-03-05T18:47:46.913Z,84.95
2023-03-05T18:50:16.877Z,84.95
2023-03-05T18:52:43.479Z,85.08
2023-03-05T18:55:18.582Z,84.90
2023-03-05T18:57:45.341Z,85.05
2023-03-05T19:00:17.461Z,84.88
2023-03-05T19:02:44.933Z,85.01
2023-03-05T19:05:14.638Z,84.80
2023-03-05T19:07:41.449Z,84.93
2023-03-05T19:10:13.682Z,85.09
2023-03-05T19:13:06.329Z,84.93
2023-03-05T19:15:33.263Z,85.24
2023-03-05T19:17:59.908Z,85.16
2023-03-05T19:20:26.471Z,84.73
2023-03-05T19:22:55.798Z,84.74
2023-03-05T19:25:22.601Z,84.75
2023-03-05T19:27:49.246Z,84.83
2023-03-05T19:30:17.128Z,84.63
2023-03-05T19:32:45.670Z,84.42
2023-03-05T19:35:15.249Z,84.41
2023-03-05T19:37:42.248Z,84.24
2023-03-05T19:40:09.600Z,83.87
2023-03-05T19:42:38.113Z,83.67
2023-03-05T19:45:06.656Z,83.40
2023-03-05T19:47:33.234Z,83.40
2023-03-05T19:50:03.028Z,83.41
2023-03-05T19:52:29.676Z,83.40
2023-03-05T19:54:57.207Z,83.26
2023-03-05T19:57:23.894Z,83.14
2023-03-05T19:59:53.889Z,82.85
2023-03-05T20:02:24.178Z,82.73
2023-03-05T20:04:50.840Z,82.43
2023-03-05T20:07:17.862Z,82.50
2023-03-05T20:09:44.583Z,82.25
2023-03-05T20:12:11.352Z,82.01
2023-03-05T20:14:38.235Z,81.88
2023-03-05T20:17:05.029Z,81.75
2023-03-05T20:19:31.917Z,81.79
2023-03-05T20:21:58.556Z,81.52
2023-03-05T20:24:25.250Z,81.33
2023-03-05T20:26:51.940Z,81.39
2023-03-05T20:29:18.966Z,81.13
2023-03-05T20:31:46.661Z,81.20
2023-03-05T20:34:15.685Z,80.96
2023-03-05T20:36:42.403Z,81.04
2023-03-05T20:39:09.368Z,80.91
2023-03-05T20:41:40.507Z,80.67
2023-03-05T20:44:08.550Z,80.69
2023-03-05T20:46:57.556Z,80.86
2023-03-05T20:49:24.201Z,81.03
2023-03-05T20:51:51.112Z,81.27
2023-03-05T20:54:17.882Z,81.43
2023-03-05T20:56:44.648Z,81.53
2023-03-05T20:59:11.332Z,81.83
2023-03-05T21:01:40.130Z,81.86
2023-03-05T21:04:07.329Z,81.93
2023-03-05T21:06:34.173Z,82.12
2023-03-05T21:09:01.352Z,82.26
2023-03-05T21:11:28.082Z,82.53
2023-03-05T21:13:54.746Z,82.61
2023-03-05T21:16:27.545Z,82.76
2023-03-05T21:18:56.072Z,82.85
2023-03-05T21:21:22.973Z,83.03
2023-03-05T21:23:49.745Z,82.94
2023-03-05T21:26:16.385Z,83.03
2023-03-05T21:28:43.166Z,83.19
2023-03-05T21:31:15.259Z,83.17
2023-03-05T21:33:42.272Z,83.21
2023-03-05T21:36:09.535Z,83.17
2023-03-05T21:38:36.919Z,83.01
2023-03-05T21:41:04.369Z,83.08
2023-03-05T21:43:31.746Z,83.14
2023-03-05T21:46:01.007Z,83.29
2023-03-05T21:48:27.714Z,83.08
2023-03-05T21:50:55.349Z,83.42
2023-03-05T21:53:23.116Z,83.35
2023-03-05T21:56:16.049Z,83.26
2023-03-05T21:58:42.717Z,83.19
2023-03-05T22:01:12.741Z,83.55
2023-03-05T22:03:39.705Z,83.63
2023-03-05T22:06:10.551Z,83.33
2023-03-05T22:08:37.016Z,83.29
2023-03-05T22:11:09.376Z,83.33
2023-03-05T22:13:37.630Z,83.62
2023-03-05T22:16:05.926Z,83.68
2023-03-05T22:18:34.199Z,83.53
2023-03-05T22:21:01.769Z,83.66
2023-03-05T22:23:31.477Z,83.84
2023-03-05T22:26:20.311Z,83.68
2023-03-05T22:28:48.084Z,83.86
2023-03-05T22:31:26.877Z,83.95
2023-03-05T22:33:54.403Z,84.05
2023-03-05T22:36:21.103Z,83.99
2023-03-05T22:38:47.844Z,83.93
2023-03-05T22:41:19.838Z,84.22
2023-03-05T22:43:47.692Z,84.41
2023-03-05T22:46:18.678Z,84.24
2023-03-05T22:48:45.859Z,84.37
2023-03-05T22:51:13.602Z,84.21
2023-03-05T22:53:40.802Z,84.32
2023-03-05T22:56:12.964Z,84.26
2023-03-05T22:58:40.088Z,84.33
2023-03-05T23:01:24.150Z,84.45
2023-03-05T23:04:51.827Z,84.15
2023-03-05T23:07:24.295Z,84.07
2023-03-05T23:09:53.485Z,84.31
2023-03-05T23:12:20.401Z,83.99
2023-03-05T23:14:47.143Z,84.30
2023-03-05T23:17:13.803Z,84.37
2023-03-05T23:19:40.449Z,84.45
2023-03-05T23:22:09.649Z,84.45
2023-03-05T23:24:36.284Z,84.35
2023-03-05T23:27:06.860Z,84.46
2023-03-05T23:30:16.679Z,84.36
2023-03-05T23:32:49.462Z,84.51
2023-03-05T23:35:19.875Z,84.71
2023-03-05T23:37:46.913Z,84.76
2023-03-05T23:40:17.254Z,84.96
2023-03-05T23:42:44.632Z,85.12
2023-03-05T23:45:13.806Z,85.08
2023-03-05T23:47:40.775Z,84.99
2023-03-05T23:50:11.662Z,84.77
2023-03-05T23:52:38.402Z,84.95
2023-03-05T23:55:05.471Z,85.07
2023-03-05T23:57:32.083Z,85.08
2023-03-05T23:59:59.060Z,85.06
